Time;durP1;ratioP1;P1;durP2;ratioP2;P2;SDS_P1;SDS_P2;PMS_P1;PMS_P2;Temp;Humidity;BMP_temperature;BMP_pressure;BME280_temperature;BME280_humidity;BME280_pressure;Samples;Min_cycle;Max_cycle;Signal;HPM_P1;HPM_P2
2023/01/18 00:03:37;;;;;;;23.70;13.30;;;;;-1.50;98583.00;;;;10420168;28;20194;-79
2023/01/18 00:08:41;;;;;;;21.07;12.17;;;;;-1.60;98583.00;;;;10435947;28;20191;-79
2023/01/18 00:13:43;;;;;;;21.47;11.20;;;;;-1.60;98579.00;;;;10424372;28;20217;-79
2023/01/18 00:18:52;;;;;;;22.77;12.33;;;;;-1.70;98583.00;;;;10460961;28;20819;-79
2023/01/18 00:23:55;;;;;;;15.90;10.13;;;;;-1.70;98587.00;;;;10460489;28;20186;-79
2023/01/18 00:28:57;;;;;;;21.90;11.33;;;;;-1.80;98586.00;;;;10476627;28;20247;-79
2023/01/18 00:33:59;;;;;;;21.83;10.83;;;;;-1.80;98589.00;;;;10432831;28;20236;-79
2023/01/18 00:39:01;;;;;;;22.30;10.90;;;;;-1.90;98590.00;;;;10402674;28;20607;-79
2023/01/18 00:44:03;;;;;;;19.73;10.07;;;;;-1.90;98600.00;;;;10418355;28;20202;-79
2023/01/18 00:49:05;;;;;;;20.27;10.40;;;;;-2.00;98588.00;;;;10435040;28;20240;-79
2023/01/18 00:54:07;;;;;;;17.30;9.67;;;;;-2.00;98601.00;;;;10418501;28;20193;-79
2023/01/18 00:59:09;;;;;;;18.73;10.33;;;;;-2.10;98610.00;;;;10401743;28;20232;-78
2023/01/18 01:09:31;;;;;;;15.50;9.10;;;;;-1.60;98610.00;;;;10434400;28;20837;-79
2023/01/18 01:30:37;;;;;;;17.30;9.07;;;;;-1.60;98616.00;;;;10402457;28;20186;-80
2023/01/18 01:35:41;;;;;;;13.93;8.07;;;;;-1.60;98621.00;;;;10418674;28;20522;-79
2023/01/18 01:40:43;;;;;;;16.87;8.47;;;;;-1.70;98625.00;;;;10418556;28;20546;-78
2023/01/18 01:45:45;;;;;;;15.23;8.60;;;;;-1.70;98617.00;;;;10418332;28;20201;-79
2023/01/18 01:50:47;;;;;;;15.57;8.87;;;;;-1.80;98634.00;;;;10418501;28;20183;-79
2023/01/18 01:55:49;;;;;;;15.90;9.03;;;;;-1.80;98643.00;;;;10418431;28;20242;-79
2023/01/18 02:00:53;;;;;;;11.63;8.03;;;;;-1.90;98639.00;;;;10402123;28;20226;-79
2023/01/18 02:06:04;;;;;;;17.67;8.47;;;;;-2.00;98638.00;;;;10386351;28;20207;-79
2023/01/18 02:11:06;;;;;;;15.27;6.97;;;;;-2.00;98647.00;;;;10392276;28;20225;-79
2023/01/18 02:16:23;;;;;;;15.67;7.87;;;;;-2.00;98652.00;;;;10424239;28;20221;-79
2023/01/18 02:21:45;;;;;;;11.50;7.00;;;;;-2.10;98660.00;;;;10444742;28;20190;-79
2023/01/18 02:27:03;;;;;;;14.53;7.27;;;;;-2.20;98673.00;;;;10391512;28;20245;-79
2023/01/18 02:32:17;;;;;;;16.10;7.13;;;;;-2.10;98663.00;;;;10404173;28;20220;-79
2023/01/18 02:37:54;;;;;;;19.80;7.70;;;;;-2.10;98669.00;;;;10392464;28;20685;-79
2023/01/18 02:48:22;;;;;;;14.73;7.97;;;;;-2.20;98682.00;;;;10423693;28;20190;-79
2023/01/18 02:53:24;;;;;;;13.03;7.63;;;;;-2.30;98694.00;;;;10423248;28;20225;-79
2023/01/18 02:58:46;;;;;;;9.30;7.43;;;;;-2.30;98692.00;;;;10439271;28;20229;-80
2023/01/18 03:03:49;;;;;;;20.30;8.30;;;;;-2.40;98693.00;;;;10408125;28;20595;-78
2023/01/18 03:08:52;;;;;;;14.17;8.17;;;;;-2.40;98705.00;;;;10381686;28;20233;-79
2023/01/18 03:14:11;;;;;;;11.77;6.80;;;;;-2.50;98716.00;;;;10407396;28;20214;-79
2023/01/18 03:24:41;;;;;;;14.70;7.53;;;;;-2.70;98711.00;;;;10422297;28;20210;-79
2023/01/18 03:35:14;;;;;;;15.17;7.90;;;;;-2.60;98702.00;;;;10421728;28;20198;-79
2023/01/18 03:40:20;;;;;;;11.03;7.40;;;;;-2.60;98705.00;;;;10405000;28;21095;-79
2023/01/18 03:45:31;;;;;;;14.17;7.30;;;;;-2.50;98717.00;;;;10420248;28;20255;-79
2023/01/18 03:51:25;;;;;;;14.70;7.37;;;;;-2.50;98719.00;;;;10396897;28;20191;-79
2023/01/18 03:56:45;;;;;;;14.87;7.83;;;;;-2.50;98734.00;;;;10359831;28;20227;-79
2023/01/18 04:01:47;;;;;;;17.67;7.63;;;;;-2.50;98727.00;;;;10396467;28;20201;-80
2023/01/18 04:06:49;;;;;;;18.13;8.77;;;;;-2.50;98729.00;;;;10387434;28;20202;-79
2023/01/18 04:11:51;;;;;;;13.23;7.70;;;;;-2.50;98735.00;;;;10384501;28;20218;-80
2023/01/18 04:16:53;;;;;;;15.87;8.23;;;;;-2.50;98741.00;;;;10420094;28;20215;-79
2023/01/18 04:21:55;;;;;;;12.33;7.67;;;;;-2.50;98754.00;;;;10420673;28;20265;-79
2023/01/18 04:26:57;;;;;;;12.30;7.40;;;;;-2.50;98747.00;;;;10420255;28;20206;-79
2023/01/18 04:32:01;;;;;;;14.37;8.40;;;;;-2.50;98749.00;;;;10402915;28;20707;-79
2023/01/18 04:37:03;;;;;;;14.30;8.00;;;;;-2.50;98761.00;;;;10419102;28;20213;-80
2023/01/18 04:42:05;;;;;;;11.07;7.30;;;;;-2.50;98760.00;;;;10377818;28;20205;-80
2023/01/18 04:47:07;;;;;;;12.53;6.80;;;;;-2.60;98767.00;;;;10418934;28;20313;-79
2023/01/18 04:52:09;;;;;;;17.27;7.73;;;;;-2.60;98766.00;;;;10393991;28;20191;-80
2023/01/18 04:57:11;;;;;;;11.40;7.17;;;;;-2.60;98775.00;;;;10377551;28;20207;-79
2023/01/18 05:02:13;;;;;;;13.87;7.80;;;;;-2.60;98786.00;;;;10417879;28;20203;-79
2023/01/18 05:07:16;;;;;;;14.23;8.07;;;;;-2.70;98785.00;;;;10422067;28;20708;-79
2023/01/18 05:12:20;;;;;;;20.83;8.63;;;;;-2.70;98792.00;;;;10434690;28;20218;-80
2023/01/18 05:17:26;;;;;;;12.83;8.43;;;;;-2.70;98801.00;;;;10434059;28;20202;-79
2023/01/18 05:22:28;;;;;;;16.70;7.73;;;;;-2.70;98807.00;;;;10434732;28;20220;-79
2023/01/18 05:27:30;;;;;;;19.43;9.80;;;;;-2.60;98806.00;;;;10418334;28;20225;-79
2023/01/18 05:32:34;;;;;;;13.50;8.03;;;;;-2.60;98815.00;;;;10415981;28;20190;-79
2023/01/18 05:37:36;;;;;;;16.40;9.53;;;;;-2.50;98820.00;;;;10392462;28;20202;-79
2023/01/18 05:42:40;;;;;;;20.27;9.77;;;;;-2.40;98832.00;;;;10376443;28;20187;-79
2023/01/18 05:47:44;;;;;;;12.27;8.20;;;;;-2.30;98828.00;;;;10413223;28;20213;-79
2023/01/18 05:52:46;;;;;;;19.37;10.13;;;;;-2.30;98824.00;;;;10416786;28;20500;-79
2023/01/18 05:57:47;;;;;;;14.77;9.47;;;;;-2.30;98839.00;;;;10400629;28;20575;-80
2023/01/18 06:02:51;;;;;;;16.47;9.70;;;;;-2.30;98838.00;;;;10426707;28;20629;-80
2023/01/18 06:07:53;;;;;;;17.63;9.43;;;;;-2.30;98847.00;;;;10394511;28;20716;-79
2023/01/18 06:12:55;;;;;;;13.83;8.43;;;;;-2.20;98850.00;;;;10383820;28;20215;-79
2023/01/18 06:17:58;;;;;;;14.37;9.77;;;;;-2.10;98863.00;;;;10412276;28;20202;-80
2023/01/18 06:23:00;;;;;;;19.53;9.47;;;;;-2.10;98863.00;;;;10408548;28;20224;-80
2023/01/18 06:28:03;;;;;;;21.17;9.27;;;;;-2.10;98870.00;;;;10425005;28;20296;-81
2023/01/18 06:33:09;;;;;;;15.27;8.77;;;;;-2.10;98874.00;;;;10412491;28;20199;-79
2023/01/18 06:38:11;;;;;;;14.40;8.53;;;;;-2.10;98891.00;;;;10399723;28;20257;-80
2023/01/18 06:43:13;;;;;;;13.93;7.97;;;;;-2.10;98889.00;;;;10383897;28;20187;-79
2023/01/18 06:48:17;;;;;;;17.97;9.30;;;;;-2.10;98897.00;;;;10384996;28;20825;-80
2023/01/18 06:53:19;;;;;;;15.77;8.93;;;;;-2.20;98908.00;;;;10383852;28;20187;-80
2023/01/18 06:58:24;;;;;;;16.27;8.90;;;;;-2.20;98920.00;;;;10366993;28;20218;-79
2023/01/18 07:03:29;;;;;;;11.50;8.53;;;;;-2.10;98922.00;;;;10383652;28;20400;-79
2023/01/18 07:08:31;;;;;;;20.00;8.30;;;;;-2.00;98930.00;;;;10398969;28;20240;-79
2023/01/18 07:13:33;;;;;;;13.47;9.50;;;;;-2.00;98937.00;;;;10373559;28;20256;-80
2023/01/18 07:18:35;;;;;;;11.73;7.30;;;;;-1.90;98947.00;;;;10448331;28;20294;-79
2023/01/18 07:23:42;;;;;;;18.57;8.83;;;;;-1.70;98962.00;;;;10391765;28;20207;-79
2023/01/18 07:28:46;;;;;;;16.03;8.77;;;;;-1.60;98958.00;;;;10376414;28;20210;-79
2023/01/18 07:33:48;;;;;;;15.67;9.53;;;;;-1.60;98965.00;;;;10407971;28;20198;-79
2023/01/18 07:38:51;;;;;;;14.97;9.40;;;;;-1.60;98968.00;;;;10439795;28;20210;-79
2023/01/18 07:43:53;;;;;;;14.20;8.83;;;;;-1.70;98971.00;;;;10428393;28;20271;-79
2023/01/18 07:48:55;;;;;;;14.70;8.90;;;;;-1.70;98967.00;;;;10447062;28;20244;-79
2023/01/18 07:53:57;;;;;;;14.57;9.07;;;;;-1.80;98991.00;;;;10447834;28;20228;-80
2023/01/18 07:58:59;;;;;;;21.33;9.33;;;;;-1.70;98980.00;;;;10414031;28;20309;-79
2023/01/18 08:04:01;;;;;;;21.73;10.97;;;;;-1.50;98999.00;;;;10413820;28;20270;-79
2023/01/18 08:09:03;;;;;;;19.00;10.73;;;;;-1.40;99001.00;;;;10414233;28;20617;-79
2023/01/18 08:14:05;;;;;;;19.53;12.03;;;;;-1.20;99012.00;;;;10428541;28;20210;-79
2023/01/18 08:19:07;;;;;;;20.90;10.03;;;;;-1.10;99008.00;;;;10463190;28;20240;-79
2023/01/18 08:24:09;;;;;;;19.70;11.23;;;;;-1.00;99006.00;;;;10446108;28;20225;-79
2023/01/18 08:29:11;;;;;;;16.00;10.40;;;;;-0.80;99022.00;;;;10413674;28;20203;-79
2023/01/18 08:34:12;;;;;;;17.07;10.70;;;;;-0.70;99044.00;;;;10408976;28;20248;-79
2023/01/18 08:39:14;;;;;;;23.30;12.00;;;;;-0.60;99035.00;;;;10396333;28;20215;-79
2023/01/18 08:44:16;;;;;;;23.23;11.67;;;;;-0.50;99055.00;;;;10405652;28;20183;-79
2023/01/18 08:49:18;;;;;;;20.67;11.47;;;;;-0.30;99066.00;;;;10420291;28;20190;-79
2023/01/18 08:54:20;;;;;;;21.20;12.23;;;;;-0.10;99073.00;;;;10404120;28;20671;-79
2023/01/18 08:59:22;;;;;;;18.07;11.83;;;;;0.40;99074.00;;;;10420474;28;20206;-79
2023/01/18 09:04:27;;;;;;;20.57;12.47;;;;;0.60;99073.00;;;;10420482;28;20236;-79
2023/01/18 09:09:29;;;;;;;20.13;10.90;;;;;0.70;99077.00;;;;10419630;28;20194;-78
2023/01/18 09:14:31;;;;;;;16.53;10.77;;;;;1.00;99081.00;;;;10435579;28;20229;-78
2023/01/18 09:19:33;;;;;;;21.00;11.67;;;;;1.20;99077.00;;;;10394091;28;20666;-78
2023/01/18 09:24:35;;;;;;;19.47;10.53;;;;;1.50;99078.00;;;;10393349;28;20286;-79
2023/01/18 09:29:37;;;;;;;13.87;9.50;;;;;1.30;99102.00;;;;10418688;28;20199;-78
2023/01/18 09:34:39;;;;;;;10.87;7.87;;;;;0.90;99101.00;;;;10418613;28;20911;-78
2023/01/18 09:39:41;;;;;;;14.30;8.00;;;;;0.70;99113.00;;;;10403464;28;20978;-79
2023/01/18 09:44:57;;;;;;;15.43;7.50;;;;;0.70;99121.00;;;;10389693;28;20215;-79
2023/01/18 09:50:14;;;;;;;17.03;7.63;;;;;0.70;99132.00;;;;10393067;28;20195;-78
2023/01/18 09:55:32;;;;;;;12.63;8.30;;;;;1.00;99134.00;;;;10393306;28;20175;-78
2023/01/18 10:00:42;;;;;;;19.53;9.13;;;;;1.70;99127.00;;;;10409910;28;20214;-79
2023/01/18 10:06:09;;;;;;;13.90;8.77;;;;;2.30;99138.00;;;;10400302;28;20660;-78
2023/01/18 10:11:22;;;;;;;14.17;8.90;;;;;2.40;99146.00;;;;10400910;28;20313;-78
2023/01/18 10:16:25;;;;;;;17.50;9.60;;;;;2.90;99146.00;;;;10417192;28;20241;-79
2023/01/18 10:21:40;;;;;;;15.57;10.33;;;;;3.20;99157.00;;;;10433973;28;20205;-79
2023/01/18 10:26:44;;;;;;;17.00;10.60;;;;;3.40;99151.00;;;;10381509;28;20209;-80
2023/01/18 10:32:00;;;;;;;14.87;8.97;;;;;3.70;99154.00;;;;10417223;28;20183;-79
2023/01/18 10:37:36;;;;;;;12.80;9.23;;;;;4.00;99155.00;;;;10416743;28;20182;-80
2023/01/18 10:42:45;;;;;;;13.87;7.83;;;;;4.30;99153.00;;;;10429146;28;20641;-80
2023/01/18 10:47:49;;;;;;;11.97;8.27;;;;;4.50;99154.00;;;;10449605;28;20206;-79
2023/01/18 10:52:51;;;;;;;14.97;7.10;;;;;4.70;99144.00;;;;10419408;28;20714;-78
2023/01/18 10:57:53;;;;;;;12.37;6.93;;;;;4.90;99153.00;;;;10427719;28;20206;-79
2023/01/18 11:02:57;;;;;;;18.80;7.73;;;;;5.00;99155.00;;;;10410356;28;20182;-79
2023/01/18 11:08:23;;;;;;;15.23;8.03;;;;;5.10;99147.00;;;;10441357;28;20198;-79
2023/01/18 11:13:30;;;;;;;12.27;6.20;;;;;5.20;99160.00;;;;10416043;28;20697;-79
2023/01/18 11:18:32;;;;;;;10.73;5.20;;;;;5.30;99162.00;;;;10385279;28;20203;-80
2023/01/18 11:23:35;;;;;;;10.70;5.27;;;;;5.30;99171.00;;;;10393012;28;20189;-79
2023/01/18 11:29:00;;;;;;;9.13;5.00;;;;;5.40;99165.00;;;;10411230;28;20281;-80
2023/01/18 11:34:07;;;;;;;6.83;3.80;;;;;5.50;99153.00;;;;10416601;28;20209;-80
2023/01/18 11:39:21;;;;;;;5.27;4.13;;;;;5.50;99157.00;;;;10422975;28;20202;-80
2023/01/18 11:44:30;;;;;;;4.70;3.50;;;;;5.50;99162.00;;;;10441148;28;20202;-81
2023/01/18 11:49:43;;;;;;;11.03;4.33;;;;;5.60;99162.00;;;;10423103;28;20190;-81
2023/01/18 11:54:52;;;;;;;5.63;3.47;;;;;5.60;99164.00;;;;10412262;28;20198;-80
2023/01/18 11:59:54;;;;;;;6.03;4.03;;;;;5.70;99166.00;;;;10428563;28;20202;-81
2023/01/18 12:05:15;;;;;;;10.93;4.13;;;;;5.70;99159.00;;;;10420349;28;20201;-81
2023/01/18 12:10:23;;;;;;;7.80;4.70;;;;;5.80;99158.00;;;;10442729;28;20189;-80
2023/01/18 12:15:50;;;;;;;9.80;4.13;;;;;5.90;99162.00;;;;10431062;28;20194;-80
2023/01/18 12:21:02;;;;;;;6.27;4.17;;;;;6.10;99167.00;;;;10398532;28;20194;-80
2023/01/18 12:26:25;;;;;;;7.57;3.57;;;;;6.10;99177.00;;;;10414605;28;20206;-80
2023/01/18 12:32:01;;;;;;;6.17;4.57;;;;;6.10;99192.00;;;;10403152;28;20388;-79
2023/01/18 12:37:12;;;;;;;8.73;4.37;;;;;6.20;99188.00;;;;10408522;28;20229;-80
2023/01/18 12:42:27;;;;;;;8.03;4.53;;;;;6.20;99182.00;;;;10415818;28;20187;-81
2023/01/18 12:47:34;;;;;;;6.40;4.47;;;;;6.30;99195.00;;;;10441455;28;20198;-81
2023/01/18 12:52:46;;;;;;;6.90;3.80;;;;;6.30;99200.00;;;;10435223;28;20201;-80
2023/01/18 12:57:52;;;;;;;6.33;3.87;;;;;6.30;99204.00;;;;10401981;28;20241;-80
2023/01/18 13:02:56;;;;;;;6.37;4.17;;;;;6.30;99193.00;;;;10422423;28;20236;-81
2023/01/18 13:08:28;;;;;;;7.83;4.00;;;;;6.20;99202.00;;;;10398668;28;20830;-80
2023/01/18 13:13:31;;;;;;;4.57;3.27;;;;;6.20;99210.00;;;;10403725;28;20283;-80
2023/01/18 13:18:41;;;;;;;6.20;4.30;;;;;6.20;99207.00;;;;10401699;28;20206;-81
2023/01/18 13:24:10;;;;;;;6.83;4.07;;;;;6.20;99214.00;;;;10437019;28;20651;-80
2023/01/18 13:29:28;;;;;;;6.63;4.20;;;;;6.10;99219.00;;;;10416266;28;20236;-80
2023/01/18 13:34:34;;;;;;;7.10;3.77;;;;;6.00;99226.00;;;;10420035;28;20194;-80
2023/01/18 13:39:50;;;;;;;7.67;4.53;;;;;5.90;99231.00;;;;10416727;28;20213;-79
2023/01/18 13:45:23;;;;;;;12.00;5.17;;;;;5.80;99243.00;;;;10403722;28;20209;-80
2023/01/18 13:50:29;;;;;;;15.60;6.30;;;;;5.50;99239.00;;;;10437156;28;20240;-80
2023/01/18 13:55:32;;;;;;;5.53;4.33;;;;;5.30;99248.00;;;;10415327;28;20850;-80
2023/01/18 14:00:35;;;;;;;7.03;4.43;;;;;5.30;99252.00;;;;10377522;28;20211;-79
2023/01/18 14:05:42;;;;;;;6.27;3.67;;;;;5.30;99256.00;;;;10438106;28;20199;-79
2023/01/18 14:10:51;;;;;;;9.07;4.30;;;;;5.30;99262.00;;;;10426817;28;20214;-79
2023/01/18 14:15:54;;;;;;;7.43;4.07;;;;;5.30;99263.00;;;;10408985;28;20285;-78
2023/01/18 14:21:18;;;;;;;6.00;3.60;;;;;5.30;99274.00;;;;10429703;28;20313;-79
2023/01/18 14:26:23;;;;;;;5.30;3.93;;;;;5.20;99279.00;;;;10416901;28;20248;-79
2023/01/18 14:31:30;;;;;;;6.47;4.40;;;;;4.80;99277.00;;;;10454797;28;20194;-79
2023/01/18 14:36:34;;;;;;;7.13;3.83;;;;;4.50;99283.00;;;;10432614;28;20221;-79
2023/01/18 14:41:38;;;;;;;6.53;4.17;;;;;4.30;99298.00;;;;10424711;28;20259;-79
2023/01/18 14:46:41;;;;;;;6.23;3.97;;;;;4.10;99288.00;;;;10427594;28;20186;-79
2023/01/18 14:51:49;;;;;;;10.37;4.77;;;;;4.00;99285.00;;;;10450754;28;20194;-79
2023/01/18 14:56:59;;;;;;;4.77;3.67;;;;;3.90;99292.00;;;;10453138;28;20205;-79
2023/01/18 15:02:16;;;;;;;9.13;4.37;;;;;3.80;99299.00;;;;10441549;28;20214;-79
2023/01/18 15:07:29;;;;;;;6.83;3.53;;;;;3.70;99306.00;;;;10434685;28;20202;-79
2023/01/18 15:12:32;;;;;;;9.03;4.37;;;;;3.70;99308.00;;;;10418283;28;20222;-79
2023/01/18 15:17:36;;;;;;;5.73;3.77;;;;;3.60;99317.00;;;;10426225;28;20196;-79
2023/01/18 15:22:41;;;;;;;7.73;4.37;;;;;3.60;99312.00;;;;10406112;28;20197;-79
2023/01/18 15:27:50;;;;;;;8.43;5.13;;;;;3.40;99333.00;;;;10443439;28;20195;-79
2023/01/18 15:32:55;;;;;;;7.57;3.57;;;;;3.30;99334.00;;;;10438802;28;20191;-79
2023/01/18 15:38:03;;;;;;;7.23;4.07;;;;;3.30;99330.00;;;;10419752;28;20246;-79
2023/01/18 15:43:15;;;;;;;5.27;3.73;;;;;3.30;99344.00;;;;10452957;28;20248;-80
2023/01/18 15:48:19;;;;;;;3.57;3.10;;;;;3.20;99327.00;;;;10397884;28;20198;-80
2023/01/18 15:53:33;;;;;;;6.07;3.53;;;;;3.10;99348.00;;;;10399475;28;20643;-80
2023/01/18 15:58:40;;;;;;;8.43;3.70;;;;;3.00;99338.00;;;;10403861;28;20257;-80
2023/01/18 16:03:49;;;;;;;11.87;3.00;;;;;3.00;99344.00;;;;10415359;28;20649;-79
2023/01/18 16:08:58;;;;;;;5.27;3.27;;;;;2.90;99340.00;;;;10384442;28;20201;-79
2023/01/18 16:14:06;;;;;;;7.17;3.37;;;;;2.90;99345.00;;;;10426125;28;20647;-78
2023/01/18 16:19:30;;;;;;;4.93;2.80;;;;;2.80;99353.00;;;;10435376;28;20202;-79
2023/01/18 16:24:36;;;;;;;8.70;3.23;;;;;2.80;99354.00;;;;10411979;28;20199;-79
2023/01/18 16:30:00;;;;;;;9.10;3.90;;;;;2.70;99369.00;;;;10395699;28;20281;-79
2023/01/18 16:35:15;;;;;;;5.37;3.23;;;;;2.60;99374.00;;;;10386921;28;20198;-79
2023/01/18 16:40:22;;;;;;;6.00;3.80;;;;;2.60;99379.00;;;;10414250;28;20217;-79
2023/01/18 16:45:24;;;;;;;5.37;3.50;;;;;2.60;99397.00;;;;10418346;28;20244;-78
2023/01/18 16:50:27;;;;;;;7.10;4.50;;;;;2.50;99408.00;;;;10408450;28;20858;-79
2023/01/18 16:55:29;;;;;;;9.23;5.07;;;;;2.50;99407.00;;;;10410108;28;22823;-79
2023/01/18 17:00:52;;;;;;;6.57;3.90;;;;;2.50;99410.00;;;;10434033;28;20301;-78
2023/01/18 17:05:54;;;;;;;6.07;4.03;;;;;2.50;99410.00;;;;10435132;28;20191;-79
2023/01/18 17:10:56;;;;;;;6.20;4.40;;;;;2.50;99418.00;;;;10412335;28;20226;-78
2023/01/18 17:15:58;;;;;;;6.87;3.93;;;;;2.40;99421.00;;;;10430006;28;20206;-78
2023/01/18 17:21:00;;;;;;;6.40;4.90;;;;;2.40;99428.00;;;;10361543;28;20233;-79
2023/01/18 17:26:05;;;;;;;5.50;3.63;;;;;2.40;99435.00;;;;10395493;28;20210;-79
2023/01/18 17:31:08;;;;;;;6.00;3.87;;;;;2.30;99441.00;;;;10461926;28;20687;-79
2023/01/18 17:36:11;;;;;;;8.87;4.50;;;;;2.20;99445.00;;;;10402816;28;20190;-79
2023/01/18 17:41:21;;;;;;;6.23;4.17;;;;;2.20;99449.00;;;;10386517;28;20222;-78
2023/01/18 17:46:38;;;;;;;8.47;4.70;;;;;2.10;99459.00;;;;10404068;28;20591;-78
2023/01/18 17:51:40;;;;;;;8.90;4.67;;;;;2.10;99466.00;;;;10409075;28;20227;-78
2023/01/18 17:56:42;;;;;;;7.53;4.07;;;;;2.10;99467.00;;;;10401865;28;20193;-78
2023/01/18 18:01:44;;;;;;;7.90;3.87;;;;;2.10;99471.00;;;;10416765;28;20210;-78
2023/01/18 18:06:57;;;;;;;6.93;3.63;;;;;2.10;99458.00;;;;10431882;28;20289;-78
2023/01/18 18:11:59;;;;;;;7.93;4.90;;;;;2.10;99468.00;;;;10406617;28;20306;-78
2023/01/18 18:17:01;;;;;;;8.30;4.00;;;;;2.00;99485.00;;;;10416787;28;20194;-78
2023/01/18 18:22:03;;;;;;;10.90;5.33;;;;;2.00;99484.00;;;;10446309;28;20206;-78
2023/01/18 18:27:05;;;;;;;8.23;5.20;;;;;1.90;99490.00;;;;10418230;28;20209;-78
2023/01/18 18:32:07;;;;;;;10.33;5.47;;;;;1.90;99501.00;;;;10418774;28;20221;-78
2023/01/18 18:37:10;;;;;;;8.53;5.43;;;;;1.80;99503.00;;;;10416578;28;20270;-77
2023/01/18 18:42:11;;;;;;;8.27;5.13;;;;;1.80;99513.00;;;;10416572;28;20206;-78
2023/01/18 18:47:13;;;;;;;7.77;5.10;;;;;1.70;99527.00;;;;10417320;28;20671;-77
2023/01/18 18:52:15;;;;;;;9.00;6.10;;;;;1.70;99530.00;;;;10421801;28;20236;-77
2023/01/18 18:57:19;;;;;;;6.67;4.90;;;;;1.60;99546.00;;;;10421165;28;20212;-77
2023/01/18 19:02:23;;;;;;;9.33;5.27;;;;;1.60;99547.00;;;;10408515;28;20211;-77
2023/01/18 19:07:25;;;;;;;9.13;5.60;;;;;1.60;99555.00;;;;10416519;28;20202;-78
2023/01/18 19:12:28;;;;;;;8.77;5.73;;;;;1.50;99573.00;;;;10429636;28;20218;-77
2023/01/18 19:17:30;;;;;;;6.60;4.93;;;;;1.50;99579.00;;;;10433924;28;20552;-77
2023/01/18 19:22:36;;;;;;;7.67;5.93;;;;;1.60;99585.00;;;;10444810;28;20210;-77
2023/01/18 19:27:38;;;;;;;9.47;5.80;;;;;1.70;99580.00;;;;10436501;28;20610;-77
2023/01/18 19:32:40;;;;;;;8.97;5.53;;;;;1.70;99595.00;;;;10413081;28;20214;-74
2023/01/18 19:37:43;;;;;;;10.20;5.57;;;;;1.70;99605.00;;;;10404070;28;20202;-74
2023/01/18 19:42:53;;;;;;;11.00;6.53;;;;;1.80;99600.00;;;;10436661;28;20564;-73
2023/01/18 19:47:59;;;;;;;12.00;7.20;;;;;1.70;99605.00;;;;10433008;28;20236;-74
2023/01/18 19:53:02;;;;;;;11.50;8.17;;;;;1.50;99597.00;;;;10404369;28;20248;-74
2023/01/18 19:58:05;;;;;;;10.93;6.33;;;;;1.40;99604.00;;;;10439056;28;20592;-74
2023/01/18 20:03:10;;;;;;;8.57;6.40;;;;;1.30;99584.00;;;;10418130;28;20206;-74
2023/01/18 20:08:12;;;;;;;13.83;7.33;;;;;1.20;99594.00;;;;10400004;28;20186;-74
2023/01/18 20:13:15;;;;;;;10.87;6.87;;;;;1.10;99588.00;;;;10451118;28;20672;-74
2023/01/18 20:18:17;;;;;;;11.40;7.70;;;;;1.10;99609.00;;;;10421616;28;20595;-74
2023/01/18 20:23:18;;;;;;;12.00;7.00;;;;;1.00;99609.00;;;;10402450;28;20218;-74
2023/01/18 20:28:20;;;;;;;16.73;9.00;;;;;1.00;99609.00;;;;10417977;28;20657;-75
2023/01/18 20:33:22;;;;;;;10.97;7.17;;;;;0.90;99616.00;;;;10445212;28;20653;-74
2023/01/18 20:38:24;;;;;;;13.83;8.70;;;;;0.90;99614.00;;;;10436679;28;20871;-75
2023/01/18 20:43:27;;;;;;;13.23;7.70;;;;;0.80;99605.00;;;;10412141;28;20921;-75
2023/01/18 20:48:31;;;;;;;13.70;7.93;;;;;0.90;99629.00;;;;10420673;28;20625;-74
2023/01/18 20:53:35;;;;;;;15.87;8.70;;;;;0.90;99627.00;;;;10419891;28;20202;-75
2023/01/18 20:58:38;;;;;;;20.37;10.53;;;;;0.90;99647.00;;;;10444257;28;20568;-74
2023/01/18 21:03:41;;;;;;;25.97;10.93;;;;;0.90;99648.00;;;;10416211;28;20590;-74
2023/01/18 21:08:43;;;;;;;16.83;9.93;;;;;0.90;99643.00;;;;10423410;28;20282;-74
2023/01/18 21:13:45;;;;;;;11.77;7.20;;;;;1.00;99663.00;;;;10460100;28;20585;-74
2023/01/18 21:18:48;;;;;;;15.93;9.10;;;;;1.10;99668.00;;;;10417214;28;20576;-74
2023/01/18 21:23:50;;;;;;;18.33;11.13;;;;;1.20;99665.00;;;;10423777;28;20213;-74
2023/01/18 21:28:52;;;;;;;16.57;10.57;;;;;1.30;99671.00;;;;10450842;28;20706;-74
2023/01/18 21:33:54;;;;;;;24.80;13.03;;;;;1.40;99672.00;;;;10440552;28;20674;-73
2023/01/18 21:38:56;;;;;;;20.93;10.60;;;;;1.50;99664.00;;;;10449449;28;20214;-74
2023/01/18 21:54:59;;;;;;;19.00;10.50;;;;;1.70;99683.00;;;;10428634;28;20259;-74
2023/01/18 22:00:03;;;;;;;18.10;11.13;;;;;1.70;99688.00;;;;10453740;28;20205;-74
2023/01/18 22:05:08;;;;;;;16.13;9.67;;;;;1.60;99687.00;;;;10434322;28;20195;-74
2023/01/18 22:10:10;;;;;;;17.40;10.63;;;;;1.60;99699.00;;;;10411653;28;20187;-74
2023/01/18 22:15:12;;;;;;;15.07;10.33;;;;;1.50;99703.00;;;;10429730;28;20218;-74
2023/01/18 22:20:14;;;;;;;20.23;10.60;;;;;1.30;99711.00;;;;10413720;28;20297;-74
2023/01/18 22:25:16;;;;;;;17.50;10.30;;;;;1.20;99716.00;;;;10486398;28;20201;-75
2023/01/18 22:30:18;;;;;;;15.77;9.93;;;;;1.20;99731.00;;;;10439783;28;20276;-75
2023/01/18 22:35:20;;;;;;;16.87;10.77;;;;;1.20;99724.00;;;;10429385;28;20194;-75
2023/01/18 22:40:22;;;;;;;13.67;9.40;;;;;1.30;99732.00;;;;10468445;28;20233;-75
2023/01/18 22:45:26;;;;;;;14.10;9.30;;;;;1.40;99737.00;;;;10436852;28;20226;-75
2023/01/18 22:50:28;;;;;;;15.50;9.57;;;;;1.40;99740.00;;;;10393639;28;20223;-75
2023/01/18 22:55:32;;;;;;;18.33;10.00;;;;;1.40;99744.00;;;;10425267;28;20264;-75
2023/01/18 23:00:34;;;;;;;14.10;9.47;;;;;1.30;99730.00;;;;10416351;28;20202;-75
2023/01/18 23:05:35;;;;;;;14.33;9.43;;;;;1.20;99725.00;;;;10442855;28;20191;-75
2023/01/18 23:10:38;;;;;;;18.40;9.87;;;;;1.00;99735.00;;;;10438128;28;20182;-75
2023/01/18 23:21:04;;;;;;;15.90;9.03;;;;;0.90;99751.00;;;;10421013;28;20210;-75
2023/01/18 23:26:06;;;;;;;16.10;9.03;;;;;0.90;99752.00;;;;10420706;28;20195;-75
2023/01/18 23:31:16;;;;;;;13.23;8.83;;;;;0.70;99738.00;;;;10402662;28;20179;-75
2023/01/18 23:36:18;;;;;;;17.10;9.70;;;;;0.60;99744.00;;;;10395704;28;20199;-75
2023/01/18 23:57:24;;;;;;;15.00;8.83;;;;;0.60;99753.00;;;;10394833;28;20294;-75
